sensor_id;sensor_type;location;lat;lon;timestamp;pressure;altitude;pressure_sealevel;temperature;humidity
12913;BME280;6524;51.368;11.984;2023-03-22T00:02:58;100011.91;;;7.85;69.65
12913;BME280;6524;51.368;11.984;2023-03-22T00:07:58;100010.41;;;7.50;71.56
12913;BME280;6524;51.368;11.984;2023-03-22T00:12:59;99988.47;;;7.66;71.15
12913;BME280;6524;51.368;11.984;2023-03-22T00:17:59;99992.94;;;7.49;70.43
12913;BME280;6524;51.368;11.984;2023-03-22T00:23:01;99983.94;;;7.39;71.79
12913;BME280;6524;51.368;11.984;2023-03-22T00:28:02;99986.44;;;7.71;70.56
12913;BME280;6524;51.368;11.984;2023-03-22T00:33:04;99980.38;;;6.94;72.56
12913;BME280;6524;51.368;11.984;2023-03-22T00:38:04;99971.28;;;7.46;71.37
12913;BME280;6524;51.368;11.984;2023-03-22T00:43:13;99979.78;;;7.35;71.39
12913;BME280;6524;51.368;11.984;2023-03-22T00:48:14;99963.75;;;7.70;70.33
12913;BME280;6524;51.368;11.984;2023-03-22T00:53:15;99965.28;;;7.14;72.02
12913;BME280;6524;51.368;11.984;2023-03-22T00:58:15;99962.63;;;7.44;70.52
12913;BME280;6524;51.368;11.984;2023-03-22T05:04:22;99869.94;;;6.05;65.35
12913;BME280;6524;51.368;11.984;2023-03-22T05:09:22;99868.88;;;5.60;66.47
12913;BME280;6524;51.368;11.984;2023-03-22T05:14:22;99848.69;;;5.78;66.52
12913;BME280;6524;51.368;11.984;2023-03-22T05:19:23;99845.75;;;6.00;65.47
12913;BME280;6524;51.368;11.984;2023-03-22T05:24:23;99844.06;;;5.99;66.65
12913;BME280;6524;51.368;11.984;2023-03-22T05:29:37;99845.72;;;6.16;65.42
12913;BME280;6524;51.368;11.984;2023-03-22T05:34:47;99847.44;;;6.01;65.72
12913;BME280;6524;51.368;11.984;2023-03-22T05:39:48;99849.72;;;6.07;65.62
12913;BME280;6524;51.368;11.984;2023-03-22T05:44:50;99842.84;;;6.52;64.26
12913;BME280;6524;51.368;11.984;2023-03-22T05:49:50;99843.72;;;6.05;65.72
12913;BME280;6524;51.368;11.984;2023-03-22T05:54:58;99839.72;;;6.76;63.37
12913;BME280;6524;51.368;11.984;2023-03-22T05:59:59;99845.66;;;6.94;62.60
12913;BME280;6524;51.368;11.984;2023-03-22T06:05:00;99866.81;;;7.21;62.33
12913;BME280;6524;51.368;11.984;2023-03-22T06:10:01;99857.63;;;7.14;62.46
12913;BME280;6524;51.368;11.984;2023-03-22T06:15:02;99866.00;;;6.90;62.98
12913;BME280;6524;51.368;11.984;2023-03-22T06:20:04;99866.06;;;7.04;62.67
12913;BME280;6524;51.368;11.984;2023-03-22T06:25:13;99865.53;;;7.42;61.65
12913;BME280;6524;51.368;11.984;2023-03-22T06:30:14;99873.19;;;7.60;61.40
12913;BME280;6524;51.368;11.984;2023-03-22T06:35:14;99872.47;;;7.72;60.71
12913;BME280;6524;51.368;11.984;2023-03-22T06:40:15;99875.63;;;8.06;60.47
12913;BME280;6524;51.368;11.984;2023-03-22T06:45:15;99877.16;;;7.95;60.57
12913;BME280;6524;51.368;11.984;2023-03-22T06:50:16;99867.78;;;7.77;61.69
12913;BME280;6524;51.368;11.984;2023-03-22T06:55:16;99866.19;;;8.16;60.97
12913;BME280;6524;51.368;11.984;2023-03-22T07:00:17;99871.97;;;8.35;60.80
12913;BME280;6524;51.368;11.984;2023-03-22T07:05:18;99870.97;;;8.51;61.07
12913;BME280;6524;51.368;11.984;2023-03-22T07:10:19;99868.31;;;9.05;59.53
12913;BME280;6524;51.368;11.984;2023-03-22T07:15:19;99868.41;;;9.16;59.66
12913;BME280;6524;51.368;11.984;2023-03-22T07:20:23;99866.06;;;8.86;60.65
12913;BME280;6524;51.368;11.984;2023-03-22T07:25:23;99866.63;;;9.55;58.96
12913;BME280;6524;51.368;11.984;2023-03-22T07:30:24;99870.44;;;10.37;56.92
12913;BME280;6524;51.368;11.984;2023-03-22T07:35:24;99859.31;;;11.27;54.42
12913;BME280;6524;51.368;11.984;2023-03-22T07:40:25;99872.53;;;12.17;51.93
12913;BME280;6524;51.368;11.984;2023-03-22T07:45:26;99867.84;;;11.30;52.65
12913;BME280;6524;51.368;11.984;2023-03-22T07:50:26;99861.75;;;12.84;50.32
12913;BME280;6524;51.368;11.984;2023-03-22T07:55:27;99863.09;;;13.72;47.55
12913;BME280;6524;51.368;11.984;2023-03-22T08:00:27;99859.50;;;13.52;47.80
12913;BME280;6524;51.368;11.984;2023-03-22T08:05:27;99869.81;;;14.36;46.58
12913;BME280;6524;51.368;11.984;2023-03-22T08:10:28;99857.97;;;18.37;37.59
12913;BME280;6524;51.368;11.984;2023-03-22T08:15:28;99877.25;;;20.71;33.77
12913;BME280;6524;51.368;11.984;2023-03-22T08:20:29;99879.22;;;22.34;31.46
12913;BME280;6524;51.368;11.984;2023-03-22T08:25:32;99881.94;;;23.61;28.76
12913;BME280;6524;51.368;11.984;2023-03-22T08:30:33;99882.63;;;23.35;28.96
12913;BME280;6524;51.368;11.984;2023-03-22T08:35:33;99862.28;;;22.61;30.09
12913;BME280;6524;51.368;11.984;2023-03-22T08:40:33;99856.84;;;21.67;31.45
12913;BME280;6524;51.368;11.984;2023-03-22T08:45:34;99860.88;;;23.78;29.79
12913;BME280;6524;51.368;11.984;2023-03-22T08:50:35;99863.75;;;22.21;30.82
12913;BME280;6524;51.368;11.984;2023-03-22T08:55:36;99850.38;;;21.77;30.81
12913;BME280;6524;51.368;11.984;2023-03-22T09:00:38;99851.66;;;22.53;29.62
12913;BME280;6524;51.368;11.984;2023-03-22T09:05:39;99839.34;;;19.89;33.67
12913;BME280;6524;51.368;11.984;2023-03-22T09:10:40;99834.53;;;19.76;33.54
12913;BME280;6524;51.368;11.984;2023-03-22T09:15:40;99818.31;;;21.31;32.05
12913;BME280;6524;51.368;11.984;2023-03-22T09:20:43;99814.50;;;23.20;30.34
12913;BME280;6524;51.368;11.984;2023-03-22T09:25:45;99808.88;;;21.49;32.04
12913;BME280;6524;51.368;11.984;2023-03-22T09:30:45;99801.72;;;21.42;32.27
12913;BME280;6524;51.368;11.984;2023-03-22T09:35:45;99801.41;;;20.77;32.44
12913;BME280;6524;51.368;11.984;2023-03-22T09:41:07;99798.72;;;22.82;30.70
12913;BME280;6524;51.368;11.984;2023-03-22T09:46:16;99789.50;;;23.80;29.74
12913;BME280;6524;51.368;11.984;2023-03-22T09:56:29;99786.91;;;19.16;32.97
12913;BME280;6524;51.368;11.984;2023-03-22T10:06:36;99764.28;;;21.70;31.09
12913;BME280;6524;51.368;11.984;2023-03-22T10:16:37;99754.78;;;21.89;29.80
12913;BME280;6524;51.368;11.984;2023-03-22T10:21:38;99750.28;;;21.74;30.24
12913;BME280;6524;51.368;11.984;2023-03-22T10:26:41;99736.78;;;21.68;30.44
12913;BME280;6524;51.368;11.984;2023-03-22T10:31:44;99742.00;;;18.38;34.51
12913;BME280;6524;51.368;11.984;2023-03-22T10:36:45;99726.94;;;18.86;34.52
12913;BME280;6524;51.368;11.984;2023-03-22T10:41:47;99716.44;;;18.60;34.97
12913;BME280;6524;51.368;11.984;2023-03-22T10:46:50;99708.72;;;16.64;37.63
12913;BME280;6524;51.368;11.984;2023-03-22T10:51:55;99709.72;;;16.01;38.52
12913;BME280;6524;51.368;11.984;2023-03-22T10:57:00;99724.47;;;15.50;40.30
12913;BME280;6524;51.368;11.984;2023-03-22T11:02:00;99715.63;;;14.84;41.84
12913;BME280;6524;51.368;11.984;2023-03-22T11:07:01;99708.75;;;14.92;41.63
12913;BME280;6524;51.368;11.984;2023-03-22T11:12:02;99705.13;;;16.29;37.95
12913;BME280;6524;51.368;11.984;2023-03-22T11:17:13;99701.13;;;17.11;35.51
12913;BME280;6524;51.368;11.984;2023-03-22T11:22:24;99698.69;;;18.67;33.53
12913;BME280;6524;51.368;11.984;2023-03-22T11:27:28;99694.88;;;18.04;33.96
12913;BME280;6524;51.368;11.984;2023-03-22T11:32:37;99691.47;;;19.31;32.34
12913;BME280;6524;51.368;11.984;2023-03-22T11:37:55;99677.53;;;18.24;33.62
12913;BME280;6524;51.368;11.984;2023-03-22T11:43:23;99672.19;;;19.36;32.34
12913;BME280;6524;51.368;11.984;2023-03-22T11:48:29;99670.16;;;20.15;30.91
12913;BME280;6524;51.368;11.984;2023-03-22T11:53:32;99673.03;;;20.81;31.38
12913;BME280;6524;51.368;11.984;2023-03-22T12:03:51;99646.56;;;17.56;33.71
12913;BME280;6524;51.368;11.984;2023-03-22T12:09:11;99638.59;;;18.30;32.67
12913;BME280;6524;51.368;11.984;2023-03-22T12:14:28;99627.56;;;18.33;33.05
12913;BME280;6524;51.368;11.984;2023-03-22T12:24:50;99621.88;;;17.54;34.80
12913;BME280;6524;51.368;11.984;2023-03-22T12:30:21;99630.59;;;16.72;35.99
12913;BME280;6524;51.368;11.984;2023-03-22T12:35:30;99628.38;;;17.52;34.64
12913;BME280;6524;51.368;11.984;2023-03-22T12:40:35;99627.38;;;16.34;37.13
12913;BME280;6524;51.368;11.984;2023-03-22T12:45:44;99621.03;;;16.35;38.01
12913;BME280;6524;51.368;11.984;2023-03-22T12:50:59;99617.28;;;15.58;37.70
12913;BME280;6524;51.368;11.984;2023-03-22T12:56:01;99612.38;;;15.17;38.35
12913;BME280;6524;51.368;11.984;2023-03-22T13:01:18;99620.53;;;15.51;37.59
12913;BME280;6524;51.368;11.984;2023-03-22T13:11:45;99608.50;;;16.79;35.92
12913;BME280;6524;51.368;11.984;2023-03-22T13:16:51;99615.84;;;17.44;33.48
12913;BME280;6524;51.368;11.984;2023-03-22T13:22:12;99607.63;;;16.70;35.34
12913;BME280;6524;51.368;11.984;2023-03-22T13:27:14;99594.84;;;16.48;35.60
12913;BME280;6524;51.368;11.984;2023-03-22T13:32:30;99589.75;;;15.49;37.04
12913;BME280;6524;51.368;11.984;2023-03-22T13:37:34;99585.78;;;15.53;38.23
12913;BME280;6524;51.368;11.984;2023-03-22T13:42:40;99583.59;;;16.10;37.50
12913;BME280;6524;51.368;11.984;2023-03-22T13:47:45;99581.28;;;15.89;37.37
12913;BME280;6524;51.368;11.984;2023-03-22T13:52:57;99581.16;;;16.43;35.41
12913;BME280;6524;51.368;11.984;2023-03-22T13:57:59;99585.38;;;16.28;35.03
12913;BME280;6524;51.368;11.984;2023-03-22T14:03:05;99570.22;;;16.54;34.91
12913;BME280;6524;51.368;11.984;2023-03-22T14:08:21;99562.38;;;16.95;33.83
12913;BME280;6524;51.368;11.984;2023-03-22T14:18:30;99541.84;;;16.19;35.81
12913;BME280;6524;51.368;11.984;2023-03-22T14:23:43;99548.44;;;16.33;35.67
12913;BME280;6524;51.368;11.984;2023-03-22T14:28:44;99542.88;;;15.56;35.89
12913;BME280;6524;51.368;11.984;2023-03-22T14:33:46;99541.50;;;15.88;35.54
12913;BME280;6524;51.368;11.984;2023-03-22T14:38:48;99542.41;;;16.31;35.15
12913;BME280;6524;51.368;11.984;2023-03-22T14:44:00;99548.91;;;16.54;35.46
12913;BME280;6524;51.368;11.984;2023-03-22T14:49:01;99546.63;;;16.07;35.62
12913;BME280;6524;51.368;11.984;2023-03-22T14:54:17;99556.16;;;15.48;36.30
12913;BME280;6524;51.368;11.984;2023-03-22T14:59:21;99544.84;;;15.90;37.25
12913;BME280;6524;51.368;11.984;2023-03-22T15:04:22;99549.91;;;15.57;37.07
12913;BME280;6524;51.368;11.984;2023-03-22T15:09:23;99550.13;;;15.64;37.67
12913;BME280;6524;51.368;11.984;2023-03-22T15:14:24;99548.56;;;14.90;38.52
12913;BME280;6524;51.368;11.984;2023-03-22T15:19:28;99541.97;;;14.94;38.15
12913;BME280;6524;51.368;11.984;2023-03-22T15:24:35;99555.16;;;14.58;38.45
12913;BME280;6524;51.368;11.984;2023-03-22T15:29:40;99545.41;;;14.76;38.61
12913;BME280;6524;51.368;11.984;2023-03-22T15:34:41;99545.81;;;14.54;38.77
12913;BME280;6524;51.368;11.984;2023-03-22T15:39:41;99533.16;;;14.66;39.07
12913;BME280;6524;51.368;11.984;2023-03-22T15:45:11;99531.63;;;14.35;40.23
12913;BME280;6524;51.368;11.984;2023-03-22T15:50:18;99525.91;;;13.83;40.16
12913;BME280;6524;51.368;11.984;2023-03-22T15:55:29;99522.94;;;13.96;40.11
12913;BME280;6524;51.368;11.984;2023-03-22T16:00:33;99529.19;;;14.05;40.24
12913;BME280;6524;51.368;11.984;2023-03-22T16:05:37;99535.59;;;14.12;40.99
12913;BME280;6524;51.368;11.984;2023-03-22T16:10:39;99547.06;;;14.12;40.76
12913;BME280;6524;51.368;11.984;2023-03-22T16:15:42;99550.53;;;13.56;40.90
12913;BME280;6524;51.368;11.984;2023-03-22T16:20:43;99552.19;;;13.57;40.43
12913;BME280;6524;51.368;11.984;2023-03-22T16:25:45;99555.53;;;13.40;40.73
12913;BME280;6524;51.368;11.984;2023-03-22T16:30:45;99559.75;;;13.42;40.31
12913;BME280;6524;51.368;11.984;2023-03-22T16:35:45;99561.22;;;14.03;40.26
12913;BME280;6524;51.368;11.984;2023-03-22T16:40:51;99562.50;;;13.80;40.44
12913;BME280;6524;51.368;11.984;2023-03-22T16:45:51;99564.22;;;13.52;41.10
12913;BME280;6524;51.368;11.984;2023-03-22T16:50:52;99563.84;;;12.96;41.98
12913;BME280;6524;51.368;11.984;2023-03-22T16:55:53;99566.66;;;13.24;41.34
12913;BME280;6524;51.368;11.984;2023-03-22T17:00:54;99569.50;;;13.61;41.06
12913;BME280;6524;51.368;11.984;2023-03-22T17:05:54;99573.41;;;13.28;41.02
12913;BME280;6524;51.368;11.984;2023-03-22T17:10:55;99578.38;;;12.62;42.18
12913;BME280;6524;51.368;11.984;2023-03-22T17:15:55;99577.56;;;13.21;41.16
12913;BME280;6524;51.368;11.984;2023-03-22T17:20:56;99573.34;;;13.09;42.07
12913;BME280;6524;51.368;11.984;2023-03-22T17:25:56;99578.22;;;12.53;42.74
12913;BME280;6524;51.368;11.984;2023-03-22T17:31:01;99588.72;;;12.65;42.93
12913;BME280;6524;51.368;11.984;2023-03-22T17:36:02;99580.34;;;13.00;42.28
12913;BME280;6524;51.368;11.984;2023-03-22T17:41:03;99593.53;;;13.50;41.86
12913;BME280;6524;51.368;11.984;2023-03-22T17:46:03;99594.97;;;12.54;43.73
12913;BME280;6524;51.368;11.984;2023-03-22T17:51:19;99593.22;;;12.43;43.86
12913;BME280;6524;51.368;11.984;2023-03-22T17:56:20;99607.41;;;13.03;42.81
12913;BME280;6524;51.368;11.984;2023-03-22T18:01:20;99612.91;;;12.81;43.60
12913;BME280;6524;51.368;11.984;2023-03-22T18:06:22;99626.06;;;13.02;44.00
12913;BME280;6524;51.368;11.984;2023-03-22T18:11:23;99602.03;;;12.23;45.38
12913;BME280;6524;51.368;11.984;2023-03-22T18:16:23;99597.91;;;13.11;44.03
12913;BME280;6524;51.368;11.984;2023-03-22T18:21:23;99586.94;;;13.25;43.77
12913;BME280;6524;51.368;11.984;2023-03-22T18:26:24;99590.03;;;12.80;44.21
12913;BME280;6524;51.368;11.984;2023-03-22T18:31:27;99593.41;;;12.92;44.43
12913;BME280;6524;51.368;11.984;2023-03-22T18:36:29;99588.81;;;12.84;44.54
12913;BME280;6524;51.368;11.984;2023-03-22T18:41:30;99585.00;;;12.77;44.98
12913;BME280;6524;51.368;11.984;2023-03-22T18:46:30;99573.69;;;12.44;44.78
12913;BME280;6524;51.368;11.984;2023-03-22T18:51:31;99573.50;;;12.05;45.87
12913;BME280;6524;51.368;11.984;2023-03-22T18:56:31;99569.00;;;12.27;45.62
12913;BME280;6524;51.368;11.984;2023-03-22T19:01:33;99560.72;;;12.41;45.52
12913;BME280;6524;51.368;11.984;2023-03-22T19:06:34;99564.84;;;12.03;46.07
12913;BME280;6524;51.368;11.984;2023-03-22T19:11:34;99553.81;;;11.98;46.38
12913;BME280;6524;51.368;11.984;2023-03-22T19:16:35;99553.66;;;12.21;45.30
12913;BME280;6524;51.368;11.984;2023-03-22T19:21:36;99561.88;;;12.79;44.02
12913;BME280;6524;51.368;11.984;2023-03-22T19:26:36;99556.31;;;12.21;45.26
12913;BME280;6524;51.368;11.984;2023-03-22T19:31:36;99552.59;;;12.54;45.00
12913;BME280;6524;51.368;11.984;2023-03-22T19:36:37;99560.84;;;12.70;44.26
12913;BME280;6524;51.368;11.984;2023-03-22T19:41:38;99551.06;;;12.30;44.78
12913;BME280;6524;51.368;11.984;2023-03-22T19:46:38;99553.44;;;12.33;45.45
12913;BME280;6524;51.368;11.984;2023-03-22T19:51:38;99545.16;;;11.54;46.72
12913;BME280;6524;51.368;11.984;2023-03-22T19:56:40;99540.16;;;12.24;45.71
12913;BME280;6524;51.368;11.984;2023-03-22T20:01:41;99535.53;;;12.47;45.27
12913;BME280;6524;51.368;11.984;2023-03-22T20:06:42;99537.97;;;12.29;45.27
12913;BME280;6524;51.368;11.984;2023-03-22T20:11:43;99535.31;;;12.60;44.76
12913;BME280;6524;51.368;11.984;2023-03-22T20:16:43;99534.41;;;12.49;45.01
12913;BME280;6524;51.368;11.984;2023-03-22T20:21:44;99532.53;;;12.71;44.52
12913;BME280;6524;51.368;11.984;2023-03-22T20:26:44;99525.59;;;12.79;44.65
12913;BME280;6524;51.368;11.984;2023-03-22T20:31:45;99530.50;;;12.44;45.19
12913;BME280;6524;51.368;11.984;2023-03-22T20:36:45;99512.69;;;12.55;44.95
12913;BME280;6524;51.368;11.984;2023-03-22T20:41:46;99510.09;;;12.25;45.45
12913;BME280;6524;51.368;11.984;2023-03-22T20:46:46;99499.56;;;11.83;46.84
12913;BME280;6524;51.368;11.984;2023-03-22T20:51:47;99499.41;;;11.22;47.52
12913;BME280;6524;51.368;11.984;2023-03-22T20:56:47;99503.34;;;11.48;46.57
12913;BME280;6524;51.368;11.984;2023-03-22T21:01:47;99501.84;;;11.67;46.48
12913;BME280;6524;51.368;11.984;2023-03-22T21:06:49;99512.19;;;12.00;46.17
12913;BME280;6524;51.368;11.984;2023-03-22T21:11:49;99503.19;;;11.82;46.70
12913;BME280;6524;51.368;11.984;2023-03-22T21:16:50;99504.59;;;11.86;46.36
12913;BME280;6524;51.368;11.984;2023-03-22T21:21:51;99493.16;;;12.47;45.18
12913;BME280;6524;51.368;11.984;2023-03-22T21:26:52;99493.25;;;12.05;45.28
12913;BME280;6524;51.368;11.984;2023-03-22T21:31:52;99492.25;;;12.27;44.84
12913;BME280;6524;51.368;11.984;2023-03-22T21:36:55;99485.41;;;12.65;44.28
12913;BME280;6524;51.368;11.984;2023-03-22T21:41:57;99485.66;;;11.81;46.11
12913;BME280;6524;51.368;11.984;2023-03-22T21:47:02;99485.88;;;12.08;45.51
12913;BME280;6524;51.368;11.984;2023-03-22T21:52:03;99484.50;;;12.04;45.92
12913;BME280;6524;51.368;11.984;2023-03-22T21:57:04;99477.31;;;12.56;45.13
12913;BME280;6524;51.368;11.984;2023-03-22T22:02:05;99476.81;;;12.01;45.77
12913;BME280;6524;51.368;11.984;2023-03-22T22:07:05;99473.88;;;11.74;46.78
12913;BME280;6524;51.368;11.984;2023-03-22T22:12:06;99460.06;;;11.91;46.56
12913;BME280;6524;51.368;11.984;2023-03-22T22:17:07;99465.91;;;12.25;45.45
12913;BME280;6524;51.368;11.984;2023-03-22T22:22:07;99462.84;;;11.90;46.62
12913;BME280;6524;51.368;11.984;2023-03-22T22:27:08;99465.88;;;11.85;45.95
12913;BME280;6524;51.368;11.984;2023-03-22T22:32:08;99456.44;;;11.08;48.25
12913;BME280;6524;51.368;11.984;2023-03-22T22:37:10;99450.66;;;11.14;48.24
12913;BME280;6524;51.368;11.984;2023-03-22T22:42:10;99448.44;;;10.99;48.46
12913;BME280;6524;51.368;11.984;2023-03-22T22:47:13;99453.88;;;10.86;48.60
12913;BME280;6524;51.368;11.984;2023-03-22T22:52:17;99455.59;;;11.40;47.18
12913;BME280;6524;51.368;11.984;2023-03-22T22:57:17;99453.69;;;11.52;47.18
12913;BME280;6524;51.368;11.984;2023-03-22T23:02:18;99449.88;;;11.24;47.50
12913;BME280;6524;51.368;11.984;2023-03-22T23:07:31;99446.69;;;11.41;46.92
12913;BME280;6524;51.368;11.984;2023-03-22T23:12:31;99452.06;;;11.60;46.72
12913;BME280;6524;51.368;11.984;2023-03-22T23:17:32;99446.03;;;11.28;47.04
12913;BME280;6524;51.368;11.984;2023-03-22T23:22:32;99440.94;;;11.36;46.46
12913;BME280;6524;51.368;11.984;2023-03-22T23:27:33;99437.44;;;11.56;45.70
12913;BME280;6524;51.368;11.984;2023-03-22T23:32:34;99433.91;;;11.46;45.63
12913;BME280;6524;51.368;11.984;2023-03-22T23:37:34;99422.16;;;11.39;45.83
12913;BME280;6524;51.368;11.984;2023-03-22T23:42:39;99420.19;;;11.83;44.44
12913;BME280;6524;51.368;11.984;2023-03-22T23:47:39;99409.31;;;11.76;44.73
12913;BME280;6524;51.368;11.984;2023-03-22T23:52:41;99406.31;;;11.39;45.35
12913;BME280;6524;51.368;11.984;2023-03-22T23:57:41;99401.34;;;11.25;45.61
